Relevés horaires Eggishorn (Suisse)


Relevés horaires à Eggishorn - Mercredi 15 Janv. 2020
Heure UTC1 Température [°C] Vent [km/h] Hum. [%] Pres.4 [hPa] Visi. [Km] Nébu. [octa] Préc.5 [mm] Cond.
2m. Res. Ros. Dir.2 Vit. Moy. Raf.3
23:00 -3.4 -8.6 -11.1 ENE 14.8 -- 18.5 55 700(0.5/3h) -- -- -- --
22:00 -3.7 -8 -12.0 ENE 11.1 -- 14.8 52 700(0.6/3h) -- -- -- --
22:00 -3.7 -8 -12.0 ENE 11.1 -- 14.8 52 700(0.6/3h) -- -- -- --
21:00 -3.1 -6.8 -9.9 NNE 9.3 -- 20.4 59 700(0.6/3h) -- -- -- --
20:00 -1.5 -4.9 -11.4 NE 9.3 -- 13.0 47 700(1.0/3h) -- -- -- --
19:00 -2.9 -5.2 -11.8 NNO 5.6 -- 20.4 50 700(1.3/3h) -- -- -- --
18:00 -0.5 -5.3 -15.7 NNO 16.7 -- 35.2 31 700(1.0/3h) -- -- -- --
17:00 -0.6 -6.1 -14.7 NNO 20.4 -- 35.2 33 700(1.0/3h) -- -- -- --
16:00 0.4 -4.8 -10.2 NNO 20.4 -- 33.3 45 700(0.6/3h) -- -- -- --
15:00 2.3 -0.4 -11.5 O 9.3 -- 29.6 35 700(0.2/3h) -- -- -- --
14:00 3.4 -0.2 -9.4 OSO 14.8 -- 29.6 38 700(-0.4/3h) -- -- -- --
12:00 2.1 -1.5 -8.1 OSO 13.0 -- 25.9 47 700(-0.3/3h) -- -- -- --
11:00 3.1 -0.6 -9.0 OSO 14.8 -- 24.1 41 700(0.2/3h) -- -- -- --
10:00 3.4 -0.5 -8.8 OSO 16.7 -- 24.1 40 700(0.5/3h) -- -- -- --
09:00 2.2 -2 -7.9 O 16.7 -- 25.9 47 700(0.5/3h) -- -- -- --
08:00 2.4 -2 -8.7 OSO 18.5 -- 22.2 44 700(0.3/3h) -- -- -- --
07:00 2.5 -1.6 -8.8 O 16.7 -- 24.1 43 700(0.2/3h) -- -- -- --
06:00 1.0 -2.8 -9.5 O 13.0 -- 22.2 45 700(-0.1/3h) -- -- -- --
05:00 -0.8 -4.1 -8.5 ONO 9.3 -- 16.7 56 700(-0.3/3h) -- -- -- --
04:00 1.8 -1 -9.2 O 9.3 -- 18.5 44 700(-0.3/3h) -- -- -- --
03:00 3.2 -0.4 -8.6 O 14.8 -- 22.2 42 700(-0.3/3h) -- -- -- --
02:00 1.6 -0 -9.4 SO 5.6 -- 13.0 44 700(-0.5/3h) -- -- -- --
01:00 1.4 1.4 -8.7 ONO 3.7 -- 9.3 47 700(-0.3/3h) -- -- -- --
00:00 0.7 -1.1 -17.1 E 5.6 -- 24.1 25 700(0.0/3h) -- -- -- --

1 Coordinated Universal Time. Actuellement il est 17:00 locale et 15:00 UTC.

2 Le vent souffle depuis la direction indiquée vers la direction oposée.

3 Les rafales max. sont disponible 40 min après l'heure du relevé.

4 Pour les stations d'altitude (plus de 600m) le géopotentiel du niveau le plus proche de la pression obligatoire est indiqué.

5 Les stations disposant d'un diffuseur peuvent indiquer "trace". Cela signifie que des précipitations ont touchés le sol mais que la quantité est inférieure à 0.1 mm.

Copyright

Les données affichées sur cette page sont la propriété exclusive de Météo Suisse.

Récapitulatif de la journée
Température [°C] Vent [km/h] Ensoleillement4 [h] Precipitations totale5 [mm] Pression [Hpa]
Min1 Max.2 Moy.3 Max. Min Max.
-1.9 4.9 0 35.2 6 h 48 min 0 700.0 700.0

1 Température minimale relevée entre 18:00 UTC la veille et 18:00 UTC le jour donné.

2 Température maximale relevée entre 06:00 UTC le jour donné et 06:00 UTC le lendemain.

3 Vent moyen de la journée basé sur les relevés horaires.

4 Ensoleillement en heures relevé entre 06:00 UTC la veille et 06:00 UTC le jour donné.

5 Précipitations totales tombées entre 06:00 UTC la jour donné et 06:00 UTC le lendemain.

Graphiques horaires